sensor_id;sensor_type;location;lat;lon;timestamp;temperature;humidity
40534;DHT22;26233;51.894;10.192;2024-02-14T00:00:15;9.00;46.20
40534;DHT22;26233;51.894;10.192;2024-02-14T00:02:46;9.00;46.30
40534;DHT22;26233;51.894;10.192;2024-02-14T00:05:15;9.10;46.30
40534;DHT22;26233;51.894;10.192;2024-02-14T00:07:42;9.10;46.20
40534;DHT22;26233;51.894;10.192;2024-02-14T00:10:10;9.10;46.20
40534;DHT22;26233;51.894;10.192;2024-02-14T00:12:38;9.10;46.10
40534;DHT22;26233;51.894;10.192;2024-02-14T00:15:07;9.10;46.10
40534;DHT22;26233;51.894;10.192;2024-02-14T00:17:35;9.10;46.10
40534;DHT22;26233;51.894;10.192;2024-02-14T00:20:03;9.10;46.10
40534;DHT22;26233;51.894;10.192;2024-02-14T00:22:31;9.10;46.10
40534;DHT22;26233;51.894;10.192;2024-02-14T00:24:59;9.10;46.00
40534;DHT22;26233;51.894;10.192;2024-02-14T00:27:26;9.10;46.10
40534;DHT22;26233;51.894;10.192;2024-02-14T00:29:55;9.10;46.10
40534;DHT22;26233;51.894;10.192;2024-02-14T00:32:22;9.20;46.20
40534;DHT22;26233;51.894;10.192;2024-02-14T00:34:49;9.10;46.20
40534;DHT22;26233;51.894;10.192;2024-02-14T00:37:16;9.20;46.20
40534;DHT22;26233;51.894;10.192;2024-02-14T00:39:46;9.20;46.20
40534;DHT22;26233;51.894;10.192;2024-02-14T00:42:14;9.20;46.10
40534;DHT22;26233;51.894;10.192;2024-02-14T00:44:42;9.20;46.10
40534;DHT22;26233;51.894;10.192;2024-02-14T00:47:10;9.20;46.10
40534;DHT22;26233;51.894;10.192;2024-02-14T00:49:38;9.30;46.20
40534;DHT22;26233;51.894;10.192;2024-02-14T00:52:05;9.30;46.10
40534;DHT22;26233;51.894;10.192;2024-02-14T00:54:34;9.30;46.00
40534;DHT22;26233;51.894;10.192;2024-02-14T00:57:02;9.20;46.00
40534;DHT22;26233;51.894;10.192;2024-02-14T00:59:29;9.30;46.10
40534;DHT22;26233;51.894;10.192;2024-02-14T01:01:56;9.20;46.00
40534;DHT22;26233;51.894;10.192;2024-02-14T01:04:25;9.20;46.00
40534;DHT22;26233;51.894;10.192;2024-02-14T01:06:52;9.20;45.90
40534;DHT22;26233;51.894;10.192;2024-02-14T01:09:19;9.20;46.00
40534;DHT22;26233;51.894;10.192;2024-02-14T01:11:47;9.20;46.10
40534;DHT22;26233;51.894;10.192;2024-02-14T01:14:14;9.20;46.10
40534;DHT22;26233;51.894;10.192;2024-02-14T01:16:42;9.20;46.10
40534;DHT22;26233;51.894;10.192;2024-02-14T01:19:10;9.20;46.10
40534;DHT22;26233;51.894;10.192;2024-02-14T01:21:39;9.20;46.10
40534;DHT22;26233;51.894;10.192;2024-02-14T01:24:06;9.30;46.10
40534;DHT22;26233;51.894;10.192;2024-02-14T01:26:34;9.20;46.10
40534;DHT22;26233;51.894;10.192;2024-02-14T01:29:01;9.20;46.10
40534;DHT22;26233;51.894;10.192;2024-02-14T01:31:28;9.20;46.10
40534;DHT22;26233;51.894;10.192;2024-02-14T01:33:56;9.20;46.10
40534;DHT22;26233;51.894;10.192;2024-02-14T01:36:24;9.20;46.10
40534;DHT22;26233;51.894;10.192;2024-02-14T01:38:53;9.20;46.80
40534;DHT22;26233;51.894;10.192;2024-02-14T01:41:20;9.20;46.20
40534;DHT22;26233;51.894;10.192;2024-02-14T01:43:49;9.20;46.20
40534;DHT22;26233;51.894;10.192;2024-02-14T01:46:16;9.20;46.20
40534;DHT22;26233;51.894;10.192;2024-02-14T01:48:44;9.30;47.00
40534;DHT22;26233;51.894;10.192;2024-02-14T01:51:13;9.20;46.30
40534;DHT22;26233;51.894;10.192;2024-02-14T01:53:42;9.30;46.40
40534;DHT22;26233;51.894;10.192;2024-02-14T01:56:11;9.30;46.50
40534;DHT22;26233;51.894;10.192;2024-02-14T01:58:38;9.30;46.50
40534;DHT22;26233;51.894;10.192;2024-02-14T02:01:06;9.30;46.40
40534;DHT22;26233;51.894;10.192;2024-02-14T02:03:33;9.30;46.40
40534;DHT22;26233;51.894;10.192;2024-02-14T02:06:02;9.30;46.40
40534;DHT22;26233;51.894;10.192;2024-02-14T02:08:30;9.30;46.40
40534;DHT22;26233;51.894;10.192;2024-02-14T02:10:58;9.30;46.40
40534;DHT22;26233;51.894;10.192;2024-02-14T02:13:26;9.40;46.50
40534;DHT22;26233;51.894;10.192;2024-02-14T02:15:54;9.40;46.50
40534;DHT22;26233;51.894;10.192;2024-02-14T02:18:22;9.40;46.60
40534;DHT22;26233;51.894;10.192;2024-02-14T02:20:51;9.40;46.60
40534;DHT22;26233;51.894;10.192;2024-02-14T02:23:19;9.40;46.50
40534;DHT22;26233;51.894;10.192;2024-02-14T02:25:47;9.50;46.60
40534;DHT22;26233;51.894;10.192;2024-02-14T02:28:16;9.50;46.60
40534;DHT22;26233;51.894;10.192;2024-02-14T02:30:43;9.50;46.60
40534;DHT22;26233;51.894;10.192;2024-02-14T02:33:12;9.50;46.50
40534;DHT22;26233;51.894;10.192;2024-02-14T02:35:42;9.50;46.50
40534;DHT22;26233;51.894;10.192;2024-02-14T02:38:11;9.60;46.60
40534;DHT22;26233;51.894;10.192;2024-02-14T02:40:39;9.50;46.50
40534;DHT22;26233;51.894;10.192;2024-02-14T02:43:07;9.50;46.50
40534;DHT22;26233;51.894;10.192;2024-02-14T02:45:36;9.50;46.60
40534;DHT22;26233;51.894;10.192;2024-02-14T02:48:03;9.50;46.60
40534;DHT22;26233;51.894;10.192;2024-02-14T02:50:31;9.50;46.50
40534;DHT22;26233;51.894;10.192;2024-02-14T02:52:58;9.50;46.60
40534;DHT22;26233;51.894;10.192;2024-02-14T02:55:25;9.60;46.70
40534;DHT22;26233;51.894;10.192;2024-02-14T02:57:54;9.60;46.50
40534;DHT22;26233;51.894;10.192;2024-02-14T03:00:21;9.60;46.50
40534;DHT22;26233;51.894;10.192;2024-02-14T03:02:48;9.60;46.60
40534;DHT22;26233;51.894;10.192;2024-02-14T03:05:16;9.60;46.60
40534;DHT22;26233;51.894;10.192;2024-02-14T03:07:44;9.60;46.60
40534;DHT22;26233;51.894;10.192;2024-02-14T03:10:13;9.60;46.60
40534;DHT22;26233;51.894;10.192;2024-02-14T03:12:45;9.60;46.50
40534;DHT22;26233;51.894;10.192;2024-02-14T03:15:14;9.60;46.60
40534;DHT22;26233;51.894;10.192;2024-02-14T03:17:42;9.60;46.60
40534;DHT22;26233;51.894;10.192;2024-02-14T03:20:10;9.60;46.50
40534;DHT22;26233;51.894;10.192;2024-02-14T03:22:38;9.60;47.20
40534;DHT22;26233;51.894;10.192;2024-02-14T03:25:09;9.60;46.60
40534;DHT22;26233;51.894;10.192;2024-02-14T03:27:36;9.60;46.50
40534;DHT22;26233;51.894;10.192;2024-02-14T03:30:04;9.70;46.60
40534;DHT22;26233;51.894;10.192;2024-02-14T03:32:34;9.70;46.70
40534;DHT22;26233;51.894;10.192;2024-02-14T03:35:02;9.70;46.60
40534;DHT22;26233;51.894;10.192;2024-02-14T03:37:29;9.70;46.70
40534;DHT22;26233;51.894;10.192;2024-02-14T03:39:56;9.70;46.70
40534;DHT22;26233;51.894;10.192;2024-02-14T03:42:23;9.70;46.60
40534;DHT22;26233;51.894;10.192;2024-02-14T03:44:52;9.70;46.60
40534;DHT22;26233;51.894;10.192;2024-02-14T03:47:25;9.60;46.60
40534;DHT22;26233;51.894;10.192;2024-02-14T03:49:54;9.60;46.60
40534;DHT22;26233;51.894;10.192;2024-02-14T03:52:21;9.60;46.70
40534;DHT22;26233;51.894;10.192;2024-02-14T03:54:48;9.60;46.70
40534;DHT22;26233;51.894;10.192;2024-02-14T03:57:16;9.60;46.80
40534;DHT22;26233;51.894;10.192;2024-02-14T03:59:43;9.60;46.90
40534;DHT22;26233;51.894;10.192;2024-02-14T04:02:11;9.60;46.90
40534;DHT22;26233;51.894;10.192;2024-02-14T04:04:41;9.60;47.00
40534;DHT22;26233;51.894;10.192;2024-02-14T04:07:10;9.60;47.60
40534;DHT22;26233;51.894;10.192;2024-02-14T04:09:38;9.60;47.00
40534;DHT22;26233;51.894;10.192;2024-02-14T04:12:06;9.60;47.00
40534;DHT22;26233;51.894;10.192;2024-02-14T04:14:35;9.60;47.00
40534;DHT22;26233;51.894;10.192;2024-02-14T04:17:04;9.70;47.10
40534;DHT22;26233;51.894;10.192;2024-02-14T04:19:33;9.70;47.10
40534;DHT22;26233;51.894;10.192;2024-02-14T04:22:00;9.70;47.10
40534;DHT22;26233;51.894;10.192;2024-02-14T04:24:29;9.70;47.10
40534;DHT22;26233;51.894;10.192;2024-02-14T04:26:56;9.70;47.10
40534;DHT22;26233;51.894;10.192;2024-02-14T04:29:23;9.80;47.10
40534;DHT22;26233;51.894;10.192;2024-02-14T04:31:51;9.80;47.10
40534;DHT22;26233;51.894;10.192;2024-02-14T04:34:18;9.80;47.00
40534;DHT22;26233;51.894;10.192;2024-02-14T04:36:45;9.80;46.90
40534;DHT22;26233;51.894;10.192;2024-02-14T04:39:12;9.80;46.90
40534;DHT22;26233;51.894;10.192;2024-02-14T04:41:41;9.70;46.80
40534;DHT22;26233;51.894;10.192;2024-02-14T04:44:08;9.70;46.80
40534;DHT22;26233;51.894;10.192;2024-02-14T04:46:35;9.70;46.90
40534;DHT22;26233;51.894;10.192;2024-02-14T04:49:03;9.70;46.90
40534;DHT22;26233;51.894;10.192;2024-02-14T04:51:30;9.70;46.90
40534;DHT22;26233;51.894;10.192;2024-02-14T04:53:58;9.70;46.90
40534;DHT22;26233;51.894;10.192;2024-02-14T04:56:26;9.70;47.00
40534;DHT22;26233;51.894;10.192;2024-02-14T04:58:54;9.60;47.00
40534;DHT22;26233;51.894;10.192;2024-02-14T05:01:22;9.60;47.00
40534;DHT22;26233;51.894;10.192;2024-02-14T05:03:50;9.70;47.20
40534;DHT22;26233;51.894;10.192;2024-02-14T05:06:17;9.60;47.10
40534;DHT22;26233;51.894;10.192;2024-02-14T05:08:44;9.60;47.20
40534;DHT22;26233;51.894;10.192;2024-02-14T05:11:11;9.60;47.40
40534;DHT22;26233;51.894;10.192;2024-02-14T05:13:39;9.60;47.30
40534;DHT22;26233;51.894;10.192;2024-02-14T05:16:08;9.60;47.40
40534;DHT22;26233;51.894;10.192;2024-02-14T05:18:37;9.70;47.40
40534;DHT22;26233;51.894;10.192;2024-02-14T05:21:06;9.70;47.40
40534;DHT22;26233;51.894;10.192;2024-02-14T05:23:33;9.70;47.40
40534;DHT22;26233;51.894;10.192;2024-02-14T05:26:02;9.70;47.40
40534;DHT22;26233;51.894;10.192;2024-02-14T05:28:29;9.70;47.40
40534;DHT22;26233;51.894;10.192;2024-02-14T05:30:57;9.70;47.40
40534;DHT22;26233;51.894;10.192;2024-02-14T05:33:27;9.70;47.40
40534;DHT22;26233;51.894;10.192;2024-02-14T05:35:54;9.70;47.40
40534;DHT22;26233;51.894;10.192;2024-02-14T05:38:21;9.70;47.40
40534;DHT22;26233;51.894;10.192;2024-02-14T05:40:49;9.70;47.40
40534;DHT22;26233;51.894;10.192;2024-02-14T05:43:16;9.70;47.40
40534;DHT22;26233;51.894;10.192;2024-02-14T05:45:44;9.70;47.50
40534;DHT22;26233;51.894;10.192;2024-02-14T05:48:11;9.70;47.50
40534;DHT22;26233;51.894;10.192;2024-02-14T05:50:41;9.80;47.60
40534;DHT22;26233;51.894;10.192;2024-02-14T05:53:09;9.80;47.60
40534;DHT22;26233;51.894;10.192;2024-02-14T05:55:38;9.80;47.60
40534;DHT22;26233;51.894;10.192;2024-02-14T05:58:05;9.80;47.60
40534;DHT22;26233;51.894;10.192;2024-02-14T06:00:33;9.80;47.60
40534;DHT22;26233;51.894;10.192;2024-02-14T06:03:00;9.80;47.60
40534;DHT22;26233;51.894;10.192;2024-02-14T06:05:28;9.80;47.70
40534;DHT22;26233;51.894;10.192;2024-02-14T06:07:56;9.80;47.60
40534;DHT22;26233;51.894;10.192;2024-02-14T06:10:23;9.80;47.70
40534;DHT22;26233;51.894;10.192;2024-02-14T06:12:51;9.90;47.80
40534;DHT22;26233;51.894;10.192;2024-02-14T06:15:18;9.90;47.80
40534;DHT22;26233;51.894;10.192;2024-02-14T06:17:46;9.90;47.80
40534;DHT22;26233;51.894;10.192;2024-02-14T06:20:13;9.80;47.70
40534;DHT22;26233;51.894;10.192;2024-02-14T06:22:41;9.90;47.80
40534;DHT22;26233;51.894;10.192;2024-02-14T06:25:10;9.90;47.80
40534;DHT22;26233;51.894;10.192;2024-02-14T06:27:37;9.90;47.90
40534;DHT22;26233;51.894;10.192;2024-02-14T06:30:05;9.90;47.90
40534;DHT22;26233;51.894;10.192;2024-02-14T06:32:33;9.90;47.90
40534;DHT22;26233;51.894;10.192;2024-02-14T06:35:00;9.90;47.90
40534;DHT22;26233;51.894;10.192;2024-02-14T06:37:28;9.90;47.90
40534;DHT22;26233;51.894;10.192;2024-02-14T06:39:55;9.90;47.90
40534;DHT22;26233;51.894;10.192;2024-02-14T06:42:24;9.90;48.00
40534;DHT22;26233;51.894;10.192;2024-02-14T06:44:52;9.90;48.00
40534;DHT22;26233;51.894;10.192;2024-02-14T06:47:19;9.90;48.00
40534;DHT22;26233;51.894;10.192;2024-02-14T06:49:46;9.90;48.00
40534;DHT22;26233;51.894;10.192;2024-02-14T06:52:13;9.90;48.10
40534;DHT22;26233;51.894;10.192;2024-02-14T06:54:41;9.90;48.10
40534;DHT22;26233;51.894;10.192;2024-02-14T06:57:08;9.90;48.10
40534;DHT22;26233;51.894;10.192;2024-02-14T06:59:36;9.90;48.10
40534;DHT22;26233;51.894;10.192;2024-02-14T07:02:04;10.10;47.30
40534;DHT22;26233;51.894;10.192;2024-02-14T07:04:32;10.00;47.20
40534;DHT22;26233;51.894;10.192;2024-02-14T07:06:59;10.00;47.30
40534;DHT22;26233;51.894;10.192;2024-02-14T07:09:26;10.00;47.20
40534;DHT22;26233;51.894;10.192;2024-02-14T07:11:54;10.00;47.30
40534;DHT22;26233;51.894;10.192;2024-02-14T07:14:24;10.00;47.30
40534;DHT22;26233;51.894;10.192;2024-02-14T07:16:52;10.00;47.40
40534;DHT22;26233;51.894;10.192;2024-02-14T07:19:19;10.00;47.30
40534;DHT22;26233;51.894;10.192;2024-02-14T07:21:47;10.00;47.30
40534;DHT22;26233;51.894;10.192;2024-02-14T07:24:14;10.00;47.30
40534;DHT22;26233;51.894;10.192;2024-02-14T07:26:41;10.00;47.30
40534;DHT22;26233;51.894;10.192;2024-02-14T07:29:10;10.00;47.40
40534;DHT22;26233;51.894;10.192;2024-02-14T07:31:37;9.90;48.30
40534;DHT22;26233;51.894;10.192;2024-02-14T07:34:06;9.90;48.30
40534;DHT22;26233;51.894;10.192;2024-02-14T07:36:33;9.90;48.50
40534;DHT22;26233;51.894;10.192;2024-02-14T07:39:00;9.80;48.50
40534;DHT22;26233;51.894;10.192;2024-02-14T07:41:27;9.80;48.60
40534;DHT22;26233;51.894;10.192;2024-02-14T07:43:55;9.80;48.70
40534;DHT22;26233;51.894;10.192;2024-02-14T07:46:22;9.80;48.70
40534;DHT22;26233;51.894;10.192;2024-02-14T07:48:52;9.70;48.80
40534;DHT22;26233;51.894;10.192;2024-02-14T07:51:21;9.70;48.90
40534;DHT22;26233;51.894;10.192;2024-02-14T07:53:49;9.70;49.00
40534;DHT22;26233;51.894;10.192;2024-02-14T07:56:17;9.70;49.00
40534;DHT22;26233;51.894;10.192;2024-02-14T07:58:44;9.70;49.10
40534;DHT22;26233;51.894;10.192;2024-02-14T08:01:11;9.70;49.10
40534;DHT22;26233;51.894;10.192;2024-02-14T08:03:40;9.70;49.20
40534;DHT22;26233;51.894;10.192;2024-02-14T08:06:07;9.70;49.20
40534;DHT22;26233;51.894;10.192;2024-02-14T08:08:36;9.70;49.20
40534;DHT22;26233;51.894;10.192;2024-02-14T08:11:04;9.60;49.30
40534;DHT22;26233;51.894;10.192;2024-02-14T08:13:31;9.70;49.40
40534;DHT22;26233;51.894;10.192;2024-02-14T08:16:00;9.60;49.30
40534;DHT22;26233;51.894;10.192;2024-02-14T08:18:27;9.60;49.50
40534;DHT22;26233;51.894;10.192;2024-02-14T08:20:54;9.60;49.50
40534;DHT22;26233;51.894;10.192;2024-02-14T08:23:22;9.60;49.50
40534;DHT22;26233;51.894;10.192;2024-02-14T08:25:50;9.60;49.60
40534;DHT22;26233;51.894;10.192;2024-02-14T08:28:17;9.60;49.70
40534;DHT22;26233;51.894;10.192;2024-02-14T08:30:46;9.60;49.80
40534;DHT22;26233;51.894;10.192;2024-02-14T08:33:13;9.60;49.80
40534;DHT22;26233;51.894;10.192;2024-02-14T08:35:40;9.60;49.90
40534;DHT22;26233;51.894;10.192;2024-02-14T08:38:07;9.60;50.00
40534;DHT22;26233;51.894;10.192;2024-02-14T08:40:34;9.60;50.10
40534;DHT22;26233;51.894;10.192;2024-02-14T08:43:03;9.60;50.10
40534;DHT22;26233;51.894;10.192;2024-02-14T08:45:31;9.60;50.10
40534;DHT22;26233;51.894;10.192;2024-02-14T08:48:00;9.50;50.00
40534;DHT22;26233;51.894;10.192;2024-02-14T08:50:27;9.60;50.80
40534;DHT22;26233;51.894;10.192;2024-02-14T08:52:56;9.60;50.20
40534;DHT22;26233;51.894;10.192;2024-02-14T08:55:23;9.70;50.30
40534;DHT22;26233;51.894;10.192;2024-02-14T08:57:51;9.70;50.40
40534;DHT22;26233;51.894;10.192;2024-02-14T09:00:19;9.70;50.40
40534;DHT22;26233;51.894;10.192;2024-02-14T09:02:48;9.70;50.40
40534;DHT22;26233;51.894;10.192;2024-02-14T09:05:15;9.80;50.60
40534;DHT22;26233;51.894;10.192;2024-02-14T09:07:43;9.80;50.60
40534;DHT22;26233;51.894;10.192;2024-02-14T09:10:10;9.80;50.60
40534;DHT22;26233;51.894;10.192;2024-02-14T09:12:38;9.80;50.70
40534;DHT22;26233;51.894;10.192;2024-02-14T09:15:07;9.90;50.80
40534;DHT22;26233;51.894;10.192;2024-02-14T09:17:36;9.90;50.70
40534;DHT22;26233;51.894;10.192;2024-02-14T09:20:05;9.90;50.80
40534;DHT22;26233;51.894;10.192;2024-02-14T09:22:35;10.00;49.90
40534;DHT22;26233;51.894;10.192;2024-02-14T09:25:02;10.00;49.90
40534;DHT22;26233;51.894;10.192;2024-02-14T09:27:31;10.10;49.90
40534;DHT22;26233;51.894;10.192;2024-02-14T09:29:58;10.10;50.50
40534;DHT22;26233;51.894;10.192;2024-02-14T09:32:25;10.20;50.00
40534;DHT22;26233;51.894;10.192;2024-02-14T09:34:54;10.10;50.00
40534;DHT22;26233;51.894;10.192;2024-02-14T09:37:22;10.20;50.10
40534;DHT22;26233;51.894;10.192;2024-02-14T09:39:50;10.20;50.00
40534;DHT22;26233;51.894;10.192;2024-02-14T09:42:28;10.30;50.10
40534;DHT22;26233;51.894;10.192;2024-02-14T09:45:01;10.30;50.20
40534;DHT22;26233;51.894;10.192;2024-02-14T09:47:30;10.30;50.10
40534;DHT22;26233;51.894;10.192;2024-02-14T09:50:01;10.40;50.30
40534;DHT22;26233;51.894;10.192;2024-02-14T09:52:32;10.40;50.30
40534;DHT22;26233;51.894;10.192;2024-02-14T09:55:01;10.40;50.30
40534;DHT22;26233;51.894;10.192;2024-02-14T09:57:30;10.50;50.30
40534;DHT22;26233;51.894;10.192;2024-02-14T10:00:00;10.50;50.30
40534;DHT22;26233;51.894;10.192;2024-02-14T10:02:30;10.50;50.40
40534;DHT22;26233;51.894;10.192;2024-02-14T10:04:59;10.50;50.40
40534;DHT22;26233;51.894;10.192;2024-02-14T10:07:26;10.60;50.50
40534;DHT22;26233;51.894;10.192;2024-02-14T10:09:54;10.60;50.40
40534;DHT22;26233;51.894;10.192;2024-02-14T10:12:21;10.70;50.50
40534;DHT22;26233;51.894;10.192;2024-02-14T10:14:48;10.70;50.50
40534;DHT22;26233;51.894;10.192;2024-02-14T10:17:18;10.70;50.50
40534;DHT22;26233;51.894;10.192;2024-02-14T10:19:55;10.80;50.60
40534;DHT22;26233;51.894;10.192;2024-02-14T10:22:27;10.80;50.60
40534;DHT22;26233;51.894;10.192;2024-02-14T10:25:00;10.80;50.60
40534;DHT22;26233;51.894;10.192;2024-02-14T10:27:27;10.80;50.60
40534;DHT22;26233;51.894;10.192;2024-02-14T10:29:56;10.90;50.70
40534;DHT22;26233;51.894;10.192;2024-02-14T10:32:23;10.90;50.70
40534;DHT22;26233;51.894;10.192;2024-02-14T10:34:50;10.90;50.70
40534;DHT22;26233;51.894;10.192;2024-02-14T10:37:18;11.00;50.80
40534;DHT22;26233;51.894;10.192;2024-02-14T10:39:49;11.00;50.80
40534;DHT22;26233;51.894;10.192;2024-02-14T10:42:19;11.00;50.70
40534;DHT22;26233;51.894;10.192;2024-02-14T10:44:46;11.10;50.90
40534;DHT22;26233;51.894;10.192;2024-02-14T10:47:19;11.10;50.90
40534;DHT22;26233;51.894;10.192;2024-02-14T10:49:48;11.10;50.90
40534;DHT22;26233;51.894;10.192;2024-02-14T10:52:18;11.10;50.80
40534;DHT22;26233;51.894;10.192;2024-02-14T10:54:54;11.20;51.00
40534;DHT22;26233;51.894;10.192;2024-02-14T10:57:24;11.20;51.00
40534;DHT22;26233;51.894;10.192;2024-02-14T10:59:53;11.20;51.00
40534;DHT22;26233;51.894;10.192;2024-02-14T11:02:21;11.30;51.10
40534;DHT22;26233;51.894;10.192;2024-02-14T11:04:49;11.30;51.10
40534;DHT22;26233;51.894;10.192;2024-02-14T11:07:20;11.40;51.10
40534;DHT22;26233;51.894;10.192;2024-02-14T11:09:52;11.40;51.10
40534;DHT22;26233;51.894;10.192;2024-02-14T11:12:32;11.40;51.10
40534;DHT22;26233;51.894;10.192;2024-02-14T11:15:02;11.50;51.20
40534;DHT22;26233;51.894;10.192;2024-02-14T11:17:36;11.50;51.10
40534;DHT22;26233;51.894;10.192;2024-02-14T11:20:17;11.50;51.00
40534;DHT22;26233;51.894;10.192;2024-02-14T11:22:53;11.50;51.00
40534;DHT22;26233;51.894;10.192;2024-02-14T11:25:28;11.60;51.10
40534;DHT22;26233;51.894;10.192;2024-02-14T11:27:58;11.60;51.10
40534;DHT22;26233;51.894;10.192;2024-02-14T11:30:33;11.50;51.00
40534;DHT22;26233;51.894;10.192;2024-02-14T11:33:15;11.60;51.10
40534;DHT22;26233;51.894;10.192;2024-02-14T11:35:45;11.60;51.20
40534;DHT22;26233;51.894;10.192;2024-02-14T11:38:13;11.60;51.10
40534;DHT22;26233;51.894;10.192;2024-02-14T11:40:42;11.60;51.10
40534;DHT22;26233;51.894;10.192;2024-02-14T11:43:13;11.60;51.10
40534;DHT22;26233;51.894;10.192;2024-02-14T11:45:43;11.60;51.20
40534;DHT22;26233;51.894;10.192;2024-02-14T11:48:12;11.60;51.20
40534;DHT22;26233;51.894;10.192;2024-02-14T11:50:40;11.60;51.20
40534;DHT22;26233;51.894;10.192;2024-02-14T11:53:10;11.60;51.40
40534;DHT22;26233;51.894;10.192;2024-02-14T11:55:38;11.60;51.40
40534;DHT22;26233;51.894;10.192;2024-02-14T11:58:10;11.60;51.40
40534;DHT22;26233;51.894;10.192;2024-02-14T12:00:39;11.60;51.40
40534;DHT22;26233;51.894;10.192;2024-02-14T12:03:07;11.60;51.40
40534;DHT22;26233;51.894;10.192;2024-02-14T12:05:37;11.60;51.40
40534;DHT22;26233;51.894;10.192;2024-02-14T12:08:06;11.60;51.50
40534;DHT22;26233;51.894;10.192;2024-02-14T12:10:35;11.60;51.60
40534;DHT22;26233;51.894;10.192;2024-02-14T12:13:09;11.60;51.60
40534;DHT22;26233;51.894;10.192;2024-02-14T12:15:38;11.60;51.60
40534;DHT22;26233;51.894;10.192;2024-02-14T12:18:06;11.60;51.70
40534;DHT22;26233;51.894;10.192;2024-02-14T12:20:34;11.60;51.70
40534;DHT22;26233;51.894;10.192;2024-02-14T12:23:02;11.60;51.70
40534;DHT22;26233;51.894;10.192;2024-02-14T12:25:31;11.60;51.70
40534;DHT22;26233;51.894;10.192;2024-02-14T12:27:59;11.60;51.70
40534;DHT22;26233;51.894;10.192;2024-02-14T12:30:43;11.70;51.90
40534;DHT22;26233;51.894;10.192;2024-02-14T12:33:12;11.70;52.00
40534;DHT22;26233;51.894;10.192;2024-02-14T12:35:43;11.70;52.00
40534;DHT22;26233;51.894;10.192;2024-02-14T12:38:11;11.70;52.00
40534;DHT22;26233;51.894;10.192;2024-02-14T12:40:40;11.70;51.90
40534;DHT22;26233;51.894;10.192;2024-02-14T12:43:08;11.80;52.00
40534;DHT22;26233;51.894;10.192;2024-02-14T12:45:37;11.80;52.10
40534;DHT22;26233;51.894;10.192;2024-02-14T12:48:06;11.80;52.00
40534;DHT22;26233;51.894;10.192;2024-02-14T12:50:35;11.80;52.00
40534;DHT22;26233;51.894;10.192;2024-02-14T12:53:03;11.80;52.10
40534;DHT22;26233;51.894;10.192;2024-02-14T12:55:30;11.90;52.10
40534;DHT22;26233;51.894;10.192;2024-02-14T12:57:57;11.90;52.10
40534;DHT22;26233;51.894;10.192;2024-02-14T13:00:25;11.90;52.10
40534;DHT22;26233;51.894;10.192;2024-02-14T13:02:53;11.90;52.10
40534;DHT22;26233;51.894;10.192;2024-02-14T13:05:21;12.00;52.10
40534;DHT22;26233;51.894;10.192;2024-02-14T13:07:48;12.00;52.10
40534;DHT22;26233;51.894;10.192;2024-02-14T13:10:16;12.00;52.20
40534;DHT22;26233;51.894;10.192;2024-02-14T13:12:43;12.00;52.10
40534;DHT22;26233;51.894;10.192;2024-02-14T13:15:11;12.00;52.10
40534;DHT22;26233;51.894;10.192;2024-02-14T13:17:38;12.00;52.10
40534;DHT22;26233;51.894;10.192;2024-02-14T13:20:08;12.00;52.70
40534;DHT22;26233;51.894;10.192;2024-02-14T13:22:36;12.00;52.10
40534;DHT22;26233;51.894;10.192;2024-02-14T13:25:03;12.00;52.20
40534;DHT22;26233;51.894;10.192;2024-02-14T13:27:31;12.00;52.20
40534;DHT22;26233;51.894;10.192;2024-02-14T13:29:59;12.00;52.20
40534;DHT22;26233;51.894;10.192;2024-02-14T13:32:26;12.00;52.20
40534;DHT22;26233;51.894;10.192;2024-02-14T13:34:53;12.00;52.30
40534;DHT22;26233;51.894;10.192;2024-02-14T13:37:22;12.00;52.40
40534;DHT22;26233;51.894;10.192;2024-02-14T13:39:51;12.00;52.50
40534;DHT22;26233;51.894;10.192;2024-02-14T13:42:18;12.00;52.50
40534;DHT22;26233;51.894;10.192;2024-02-14T13:44:46;12.10;52.70
40534;DHT22;26233;51.894;10.192;2024-02-14T13:47:13;12.10;52.80
40534;DHT22;26233;51.894;10.192;2024-02-14T13:49:44;12.10;52.80
40534;DHT22;26233;51.894;10.192;2024-02-14T13:52:11;12.10;52.60
40534;DHT22;26233;51.894;10.192;2024-02-14T13:54:40;12.10;52.60
40534;DHT22;26233;51.894;10.192;2024-02-14T13:57:07;12.10;52.50
40534;DHT22;26233;51.894;10.192;2024-02-14T13:59:34;12.10;52.50
40534;DHT22;26233;51.894;10.192;2024-02-14T14:02:01;12.10;52.50
40534;DHT22;26233;51.894;10.192;2024-02-14T14:04:29;12.10;52.60
40534;DHT22;26233;51.894;10.192;2024-02-14T14:06:56;12.10;52.70
40534;DHT22;26233;51.894;10.192;2024-02-14T14:09:24;12.10;52.70
40534;DHT22;26233;51.894;10.192;2024-02-14T14:11:53;12.20;52.90
40534;DHT22;26233;51.894;10.192;2024-02-14T14:14:21;12.20;52.90
40534;DHT22;26233;51.894;10.192;2024-02-14T14:16:51;12.20;52.90
40534;DHT22;26233;51.894;10.192;2024-02-14T14:19:19;12.20;52.90
40534;DHT22;26233;51.894;10.192;2024-02-14T14:21:46;12.20;52.80
40534;DHT22;26233;51.894;10.192;2024-02-14T14:24:13;12.30;53.00
40534;DHT22;26233;51.894;10.192;2024-02-14T14:26:40;12.30;52.90
40534;DHT22;26233;51.894;10.192;2024-02-14T14:29:09;12.30;52.80
40534;DHT22;26233;51.894;10.192;2024-02-14T14:31:37;12.30;52.80
40534;DHT22;26233;51.894;10.192;2024-02-14T14:34:04;12.30;52.80
40534;DHT22;26233;51.894;10.192;2024-02-14T14:36:31;12.30;52.90
40534;DHT22;26233;51.894;10.192;2024-02-14T14:38:58;12.20;52.80
40534;DHT22;26233;51.894;10.192;2024-02-14T14:41:26;12.20;52.80
40534;DHT22;26233;51.894;10.192;2024-02-14T14:43:54;12.20;52.90
40534;DHT22;26233;51.894;10.192;2024-02-14T14:46:22;12.20;52.90
40534;DHT22;26233;51.894;10.192;2024-02-14T14:48:51;12.20;53.00
40534;DHT22;26233;51.894;10.192;2024-02-14T14:51:18;12.10;53.00
40534;DHT22;26233;51.894;10.192;2024-02-14T14:53:45;12.20;53.20
40534;DHT22;26233;51.894;10.192;2024-02-14T14:56:12;12.20;53.20
40534;DHT22;26233;51.894;10.192;2024-02-14T14:58:40;12.20;53.20
40534;DHT22;26233;51.894;10.192;2024-02-14T15:01:08;12.20;53.20
40534;DHT22;26233;51.894;10.192;2024-02-14T15:03:37;12.20;53.20
40534;DHT22;26233;51.894;10.192;2024-02-14T15:06:04;12.20;53.20
40534;DHT22;26233;51.894;10.192;2024-02-14T15:08:32;12.20;53.30
40534;DHT22;26233;51.894;10.192;2024-02-14T15:10:59;12.20;53.20
40534;DHT22;26233;51.894;10.192;2024-02-14T15:13:26;12.30;53.40
40534;DHT22;26233;51.894;10.192;2024-02-14T15:15:53;12.30;53.30
40534;DHT22;26233;51.894;10.192;2024-02-14T15:18:21;12.30;53.30
40534;DHT22;26233;51.894;10.192;2024-02-14T15:20:49;12.30;53.40
40534;DHT22;26233;51.894;10.192;2024-02-14T15:23:16;12.30;53.30
40534;DHT22;26233;51.894;10.192;2024-02-14T15:25:44;12.30;53.30
40534;DHT22;26233;51.894;10.192;2024-02-14T15:28:11;12.20;53.30
40534;DHT22;26233;51.894;10.192;2024-02-14T15:30:43;12.30;53.40